Weather at Chicago Rockford International Airport

Public forecast

Using degrees Fahrenheit for public forecast. Weather courtesy of forecast.io.

Current aviation weather report (METAR) for Chicago Rockford International Airport

Retrieved 2020/10/27 01:54 UTC (1 hour ago):

KRFD 270154Z 34003KT 10SM OVC095 02/M04 A3036 RMK AO2 SLP287 T00221044

Aviation forecast (TAF) for Chicago Rockford International Airport

Retrieved 2020/10/26 21:06 UTC (6 hours ago):

TAF KRFD 262100Z 2621/2718 34008KT P6SM BKN020 FM262200 33007KT P6SM SCT025 BKN080 FM270300 34004KT P6SM SCT070 FM271400 27008KT P6SM FEW070